Flight Track Log - Related Links

Times and Time Zones

All times are in EDT time to prevent confusion due to time zone crossing. See the EGF3318 flight status page for this flight to view local times or setup timezone preferences in your user account.

Time Position Orientation Groundspeed Altitude Reporting Facility
EDT Latitude Longitude Course Direction KTS MPH feet Rate Location/Type
Sun 12:21:17 PM 33.9336 -118.4506 48° Northeast 179 206 2,200  Level Los Angeles Center
Sun 12:22:00 PM 34.0854 -118.1469 51° Northeast  Level FlightAware Approximate
Sun 12:22:19 PM 33.9153 -118.5258 254° West 219 252 4,900  Level Los Angeles Center
Sun 12:23:00 PM 34.1590 -118.0153 59° Northeast  Level FlightAware Approximate
Sun 12:23:21 PM 33.9003 -118.6022 257° West 261 300 7,000  Level Los Angeles Center
Sun 12:24:00 PM 34.2272 -117.8789 59° Northeast  Level FlightAware Approximate
Sun 12:24:23 PM 33.8428 -118.5625 150° Southeast 270 311 10,300  Level Los Angeles Center
Sun 12:25:00 PM 34.2966 -117.7601 55° Northeast  Level FlightAware Approximate
Sun 12:25:25 PM 33.8706 -118.4744 69° East 292 336 13,100  Level Los Angeles Center
Sun 12:26:00 PM 34.3706 -117.6281 48° Northeast  Level FlightAware Approximate
Sun 12:26:27 PM 33.9475 -118.4072 36° Northeast 339 390 14,600  Level Los Angeles Center
Sun 12:27:30 PM 34.0075 -118.3019 55° Northeast 374 430 16,400 1,584 Climbing Los Angeles Center
Sun 12:28:32 PM 34.0694 -118.1922 56° Northeast 391 450 17,900 968 Climbing Los Angeles Center
Sun 12:29:34 PM 34.1067 -118.0758 69° East 377 434 18,400 1,306 Climbing Los Angeles Center
Sun 12:30:36 PM 34.1550 -117.9617 63° Northeast 383 441 20,600 1,984 Climbing Los Angeles Center
Sun 12:31:38 PM 34.2206 -117.8528 54° Northeast 393 452 22,500 1,984 Climbing Los Angeles Center
Sun 12:32:40 PM 34.3014 -117.7167 54° Northeast 410 472 24,700 1,742 Climbing Los Angeles Center
Sun 12:33:42 PM 34.3706 -117.6000 54° Northeast 419 482 26,100 1,344 Climbing Los Angeles Center
Sun 12:34:45 PM 34.4456 -117.4706 55° Northeast 442 509 27,500 1,296 Climbing Los Angeles Center
Sun 12:35:47 PM 34.5189 -117.3439 55° Northeast 457 526 28,800 1,161 Climbing Los Angeles Center
Sun 12:36:49 PM 34.5992 -117.2192 52° Northeast 471 542 29,900 1,016 Climbing Los Angeles Center
Sun 12:37:51 PM 34.6872 -117.1008 48° Northeast 473 544 30,900 968 Climbing Los Angeles Center
Sun 12:38:53 PM 34.7769 -116.9783 48° Northeast 484 557 31,900 1,065 Climbing Los Angeles Center
Sun 12:39:55 PM 34.8867 -116.8283 48° Northeast 493 567 33,100 1,104 Climbing Los Angeles Center
Sun 12:40:58 PM 34.9775 -116.7031 48° Northeast 494 568 34,200 1,104 Climbing Los Angeles Center
Sun 12:42:00 PM 35.0700 -116.5778 48° Northeast 499 574 35,400 1,113 Climbing Los Angeles Center
Sun 12:43:02 PM 35.1586 -116.4544 49° Northeast 492 566 36,500 774 Climbing Los Angeles Center
Sun 12:44:04 PM 35.2453 -116.3297 50° Northeast 487 560 37,000 242 Climbing Los Angeles Center
Sun 12:45:06 PM 35.3567 -116.1769 48° Northeast 498 573 37,000  Level Los Angeles Center
Sun 12:46:08 PM 35.4492 -116.0475 49° Northeast 504 580 37,000  Level Los Angeles Center
Sun 12:47:10 PM 35.5417 -115.9183 49° Northeast 505 581 37,000  Level Los Angeles Center
Sun 12:48:13 PM 35.6469 -115.7778 47° Northeast 504 580 37,000  Level Los Angeles Center
Sun 12:49:15 PM 35.7253 -115.6344 56° Northeast 507 583 37,000  Level Los Angeles Center
Sun 12:50:17 PM 35.7947 -115.4811 61° Northeast 514 592 37,000  Level Los Angeles Center
Sun 12:51:19 PM 35.8644 -115.3300 60° Northeast 514 592 37,000  Level Los Angeles Center
Sun 12:52:21 PM 35.9464 -115.1467 61° Northeast 514 592 37,000  Level Los Angeles Center
Sun 12:53:23 PM 36.0139 -114.9928 61° Northeast 514 592 37,000  Level Los Angeles Center
Sun 12:54:25 PM 36.0833 -114.8386 61° Northeast 514 592 37,000  Level Los Angeles Center
Sun 12:55:28 PM 36.1522 -114.6850 61° Northeast 514 592 37,000  Level Los Angeles Center
Sun 12:56:30 PM 36.2189 -114.5297 62° Northeast 514 592 37,000  Level Los Angeles Center
Sun 12:57:32 PM 36.3022 -114.3433 61° Northeast 515 593 37,000  Level Los Angeles Center
Sun 12:58:34 PM 36.3692 -114.1878 62° Northeast 515 593 37,000  Level Los Angeles Center
Sun 12:59:37 PM 36.4383 -114.0314 61° Northeast 515 593 37,000  Level Los Angeles Center
Sun 01:00:39 PM 36.5064 -113.8747 62° Northeast 516 594 37,000  Level Los Angeles Center
Sun 01:01:41 PM 36.5847 -113.6950 61° Northeast 515 593 37,000  Level Los Angeles Center
Sun 01:02:43 PM 36.6503 -113.5392 62° Northeast 514 592 37,000  Level Los Angeles Center
Sun 01:03:45 PM 36.7169 -113.3844 62° Northeast 513 590 37,000  Level Los Angeles Center
Sun 01:04:48 PM 36.7828 -113.2281 62° Northeast 512 589 37,000  Level Los Angeles Center
Sun 01:05:50 PM 36.8486 -113.0728 62° Northeast 512 589 37,000  Level Los Angeles Center
Sun 01:06:52 PM 36.9272 -112.8856 62° Northeast 512 589 37,000  Level Los Angeles Center
Sun 01:07:54 PM 36.9931 -112.7297 62° Northeast 511 588 37,000  Level Los Angeles Center
Sun 01:08:56 PM 37.0583 -112.5744 62° Northeast 511 588 37,000  Level Los Angeles Center
Sun 01:09:58 PM 37.1233 -112.4186 62° Northeast 510 587 37,000  Level Los Angeles Center
Sun 01:11:00 PM 37.1867 -112.2617 63° Northeast 510 587 37,000  Level Los Angeles Center
Sun 01:12:03 PM 37.2644 -112.0742 62° Northeast 509 586 37,000  Level Los Angeles Center
Sun 01:13:05 PM 37.3297 -111.9181 62° Northeast 509 586 37,000  Level Los Angeles Center
Sun 01:14:01 PM 37.3925 -111.7594 63° Northeast 506 582 37,000  Level Denver Center
Sun 01:15:04 PM 37.4581 -111.6014 62° Northeast 508 585 37,000  Level Denver Center
Sun 01:16:06 PM 37.5225 -111.4425 63° Northeast 509 586 37,000  Level Denver Center
Sun 01:17:08 PM 37.5867 -111.2844 63° Northeast 510 587 37,000  Level Denver Center
Sun 01:18:10 PM 37.6514 -111.1250 63° Northeast 511 588 37,000  Level Denver Center
Sun 01:19:12 PM 37.7289 -110.9333 63° Northeast 511 588 37,000  Level Denver Center
Sun 01:20:14 PM 37.7919 -110.7744 63° Northeast 511 588 37,000  Level Denver Center
Sun 01:21:16 PM 37.8564 -110.6131 63° Northeast 511 588 37,000  Level Denver Center
Sun 01:22:18 PM 37.9192 -110.4542 63° Northeast 510 587 37,000  Level Denver Center
Sun 01:23:20 PM 37.9908 -110.2731 63° Northeast 511 588 37,000  Level Denver Center
Sun 01:24:22 PM 38.0500 -110.1214 64° Northeast 512 589 37,000  Level Denver Center
Sun 01:25:25 PM 38.1203 -109.9397 64° Northeast 514 592 37,000  Level Denver Center
Sun 01:26:27 PM 38.1819 -109.7831 63° Northeast 515 593 37,000  Level Denver Center
Sun 01:27:29 PM 38.2514 -109.5994 64° Northeast 515 593 37,000  Level Denver Center
Sun 01:28:31 PM 38.3125 -109.4439 63° Northeast 516 594 37,000  Level Denver Center
Sun 01:29:33 PM 38.3819 -109.2569 65° Northeast 518 596 37,000 -242 Level Denver Center
Sun 01:30:35 PM 38.4417 -109.0992 64° Northeast 520 598 36,500 -677 Descending Denver Center
Sun 01:31:37 PM 38.5106 -108.9172 64° Northeast 513 590 35,600 -774 Descending Denver Center
Sun 01:32:39 PM 38.5689 -108.7617 64° Northeast 511 588 34,900 -1,016 Descending Denver Center
Sun 01:33:41 PM 38.6386 -108.5775 64° Northeast 514 592 33,500 -1,210 Descending Denver Center
Sun 01:34:43 PM 38.6972 -108.4192 65° Northeast 517 595 32,400 -1,152 Descending Denver Center
Sun 01:35:46 PM 38.7667 -108.2336 64° Northeast 518 596 31,100 -1,200 Descending Denver Center
Sun 01:36:48 PM 38.8236 -108.0769 65° Northeast 514 592 29,900 -1,500 Descending Denver Center
Sun 01:37:50 PM 38.8881 -107.8983 65° Northeast 498 573 28,000 -1,935 Descending Denver Center
Sun 01:38:52 PM 38.9428 -107.7511 64° Northeast 486 559 25,900 -2,081 Descending Denver Center
Sun 01:39:54 PM 39.0025 -107.5825 65° Northeast 473 544 23,700 -1,984 Descending Denver Center
Sun 01:40:56 PM 39.0544 -107.4381 65° Northeast 472 543 21,800 -1,645 Descending Denver Center
Sun 01:41:58 PM 39.1183 -107.2861 62° Northeast 438 504 20,300 -871 Descending Denver Center
Sun 01:43:00 PM 39.1967 -107.1933 43° Northeast 420 483 20,000 -528 Descending Denver Center
Sun 01:44:03 PM 39.2428 -107.0733 64° Northeast 375 432 19,200 -1,008 Descending Denver Center
Sun 01:45:05 PM 39.2783 -106.9403 71° East 328 377 17,900 -1,065 Descending Denver Center
Sun 01:46:07 PM 39.3042 -106.8372 72° East 311 358 17,000 -919 Descending Denver Center
Sun 01:47:09 PM 39.3506 -106.7578 53° Northeast 294 338 16,000 -1,210 Descending Denver Center
Sun 01:48:11 PM 39.4239 -106.7881 342° North 254 292 14,500 -968 Descending Denver Center
Sun 01:49:13 PM 39.4794 -106.8222 335° Northwest 229 264 14,000 -194 Descending Denver Center
Sun 01:50:15 PM 39.5067 -106.8925 297° West 221 254 14,100 -97 Climbing Denver Center
Sun 01:51:17 PM 39.4819 -106.9611 245° Southwest 210 242 13,800 -242 Descending Denver Center
Sun 01:52:19 PM 39.4347 -106.9653 184° South 171 197 13,600 -677 Descending Denver Center
Sun 01:53:21 PM 39.3822 -106.9469 165° South 170 196 12,400 -1,065 Descending Denver Center
Sun 01:54:23 PM 39.3394 -106.9261 159° South 171 197 11,400 -1,210 Descending Denver Center
Sun 01:55:25 PM 39.2992 -106.9053 158° South 165 190 9,900 -1,296 Descending Denver Center
Sun 01:56:28 PM 39.2594 -106.8867 160° South 158 182 8,700 -1,143 Descending Denver Center

Login

Don't have an account? Register now (free) for customized features, flight alerts, and more!